Terminal Aerodrome Forecast
Issued by NWS

Current Version | Previous Version | Text Only | Print | Product List | Glossary On
Versions: 1 2 3 4 5 6 7 8 9 10 11 12 13 14 15 16 17 18 19 20 21 22 23 24
000
FTUS43 KSGF 222300
TAFBBG
TAF
KBBG 222320Z 2300/2324 11005KT P6SM BKN060
     FM230600 VRB03KT P6SM VCSH OVC050
     FM231800 13008KT P6SM BKN040 PROB30 2318/2324 P6SM -TSRA
      OVC040CB=

USA.gov is the U.S. government's official web portal to all federal, state and local government web resources and services.